Time;durP1;ratioP1;P1;durP2;ratioP2;P2;SDS_P1;SDS_P2;PMS_P1;PMS_P2;Temp;Humidity;BMP_temperature;BMP_pressure;BME280_temperature;BME280_humidity;BME280_pressure;Samples;Min_cycle;Max_cycle;Signal;HPM_P1;HPM_P2
2023/08/09 00:00:36;;;;;;;3.97;1.03;;;;;;;;;;5006898;28;20099;-69
2023/08/09 00:03:01;;;;;;;3.30;0.90;;;;;;;;;;5046341;28;20933;-69
2023/08/09 00:05:27;;;;;;;4.70;1.20;;;;;;;;;;5013028;28;20326;-71
2023/08/09 00:07:52;;;;;;;4.05;1.05;;;;;;;;;;5016082;28;20083;-70
2023/08/09 00:10:17;;;;;;;2.85;1.00;;;;;;;;;;5008843;28;21662;-71
2023/08/09 00:12:43;;;;;;;2.67;0.93;;;;;;;;;;5006801;28;20026;-70
2023/08/09 00:15:08;;;;;;;3.90;1.33;;;;;;;;;;5015192;28;20094;-69
2023/08/09 00:17:33;;;;;;;3.75;1.08;;;;;;;;;;5016448;28;20029;-70
2023/08/09 00:19:59;;;;;;;5.70;1.30;;;;;;;;;;5011025;28;20053;-69
2023/08/09 00:22:24;;;;;;;3.63;1.00;;;;;;;;;;5004487;28;20647;-71
2023/08/09 00:24:49;;;;;;;3.60;1.00;;;;;;;;;;5009420;28;20022;-68
2023/08/09 00:27:14;;;;;;;3.40;1.10;;;;;;;;;;5008555;28;20029;-70
2023/08/09 00:29:40;;;;;;;3.50;1.03;;;;;;;;;;5015774;28;20706;-71
2023/08/09 00:32:07;;;;;;;3.50;1.00;;;;;;;;;;5015191;28;20287;-70
2023/08/09 00:34:32;;;;;;;3.55;0.90;;;;;;;;;;5004741;28;20252;-73
2023/08/09 00:36:58;;;;;;;2.90;1.00;;;;;;;;;;5009140;28;20031;-70
2023/08/09 00:39:23;;;;;;;4.78;0.90;;;;;;;;;;5005633;28;20660;-70
2023/08/09 00:41:48;;;;;;;3.35;1.10;;;;;;;;;;5010841;28;20093;-72
2023/08/09 00:44:17;;;;;;;2.90;0.90;;;;;;;;;;5012386;28;20251;-70
2023/08/09 00:46:44;;;;;;;3.33;0.93;;;;;;;;;;5006490;28;20436;-72
2023/08/09 00:49:10;;;;;;;3.65;1.00;;;;;;;;;;5009665;28;20120;-71
2023/08/09 00:51:36;;;;;;;4.33;1.10;;;;;;;;;;5007621;28;20021;-69
2023/08/09 00:54:01;;;;;;;4.75;1.00;;;;;;;;;;5012307;28;20283;-70
2023/08/09 00:56:29;;;;;;;4.60;1.00;;;;;;;;;;5015317;28;20052;-70
2023/08/09 00:58:56;;;;;;;2.85;0.98;;;;;;;;;;5017993;28;20317;-72
2023/08/09 01:01:21;;;;;;;4.65;1.10;;;;;;;;;;5013284;28;20875;-72
2023/08/09 01:03:47;;;;;;;2.87;0.90;;;;;;;;;;5020790;28;20082;-72
2023/08/09 01:06:19;;;;;;;3.37;1.00;;;;;;;;;;5009244;28;20253;-72
2023/08/09 01:08:50;;;;;;;3.70;1.00;;;;;;;;;;5015293;28;20272;-70
2023/08/09 01:11:23;;;;;;;3.92;1.00;;;;;;;;;;5019524;28;20026;-70
2023/08/09 01:13:49;;;;;;;3.30;1.02;;;;;;;;;;5016856;28;20491;-70
2023/08/09 01:16:16;;;;;;;3.80;1.10;;;;;;;;;;5012797;28;20250;-72
2023/08/09 01:18:44;;;;;;;3.20;1.00;;;;;;;;;;5031848;28;20022;-71
2023/08/09 01:21:10;;;;;;;3.85;1.10;;;;;;;;;;5014028;28;20112;-73
2023/08/09 01:23:38;;;;;;;3.33;1.10;;;;;;;;;;5012949;28;20128;-69
2023/08/09 01:26:04;;;;;;;4.20;1.13;;;;;;;;;;5019868;28;20025;-70
2023/08/09 01:28:30;;;;;;;2.75;1.00;;;;;;;;;;5015632;28;20029;-70
2023/08/09 01:30:55;;;;;;;2.75;0.90;;;;;;;;;;5020643;28;20052;-69
2023/08/09 01:33:22;;;;;;;3.63;1.10;;;;;;;;;;5016376;28;20079;-70
2023/08/09 01:35:52;;;;;;;3.40;0.98;;;;;;;;;;5026285;28;20290;-72
2023/08/09 01:38:22;;;;;;;2.75;0.88;;;;;;;;;;5012801;28;20025;-68
2023/08/09 01:40:51;;;;;;;3.25;0.98;;;;;;;;;;5016550;28;20029;-70
2023/08/09 01:43:19;;;;;;;3.25;1.00;;;;;;;;;;5015833;28;20108;-70
2023/08/09 01:45:44;;;;;;;2.97;0.90;;;;;;;;;;5016103;28;20550;-72
2023/08/09 01:48:09;;;;;;;3.50;1.20;;;;;;;;;;5018979;28;20033;-70
2023/08/09 01:50:35;;;;;;;4.57;1.02;;;;;;;;;;5010714;28;20013;-70
2023/08/09 01:53:01;;;;;;;3.08;1.10;;;;;;;;;;5010072;28;20026;-71
2023/08/09 01:55:26;;;;;;;4.30;0.82;;;;;;;;;;5017654;28;20010;-69
2023/08/09 01:57:52;;;;;;;3.35;0.95;;;;;;;;;;5015782;28;20041;-70
2023/08/09 02:00:19;;;;;;;3.03;1.10;;;;;;;;;;5016295;28;20955;-69
2023/08/09 02:02:52;;;;;;;3.10;0.90;;;;;;;;;;5007825;28;20054;-71
2023/08/09 02:05:17;;;;;;;4.03;1.00;;;;;;;;;;5011974;28;20033;-74
2023/08/09 02:07:42;;;;;;;3.85;0.95;;;;;;;;;;5014018;28;20072;-74
2023/08/09 02:10:11;;;;;;;3.13;0.90;;;;;;;;;;5046169;28;20025;-71
2023/08/09 02:12:38;;;;;;;3.17;1.10;;;;;;;;;;5010967;28;20060;-71
2023/08/09 02:15:04;;;;;;;3.40;1.15;;;;;;;;;;5008898;28;20056;-71
2023/08/09 02:17:30;;;;;;;3.22;1.05;;;;;;;;;;5029418;28;20030;-71
2023/08/09 02:19:58;;;;;;;3.95;0.90;;;;;;;;;;5014172;28;20117;-72
2023/08/09 02:22:24;;;;;;;3.03;0.95;;;;;;;;;;5013528;28;20032;-68
2023/08/09 02:24:52;;;;;;;3.45;1.15;;;;;;;;;;5007439;28;20021;-72
2023/08/09 02:27:20;;;;;;;5.30;1.10;;;;;;;;;;5019022;28;20550;-72
2023/08/09 02:29:46;;;;;;;4.93;1.20;;;;;;;;;;5030378;28;20026;-73
2023/08/09 02:32:14;;;;;;;3.72;0.98;;;;;;;;;;5017149;28;20099;-70
2023/08/09 02:34:39;;;;;;;3.47;1.00;;;;;;;;;;5019528;28;20756;-70
2023/08/09 02:37:05;;;;;;;3.73;1.03;;;;;;;;;;5012176;28;20053;-70
2023/08/09 02:39:32;;;;;;;4.13;1.10;;;;;;;;;;5011561;28;20443;-70
2023/08/09 02:41:58;;;;;;;3.03;1.00;;;;;;;;;;5014806;28;20029;-72
2023/08/09 02:44:26;;;;;;;3.95;1.02;;;;;;;;;;5020340;28;20014;-69
2023/08/09 02:46:51;;;;;;;4.05;1.42;;;;;;;;;;5010879;28;20049;-72
2023/08/09 02:49:17;;;;;;;4.27;1.10;;;;;;;;;;5009742;28;20053;-73
2023/08/09 02:51:42;;;;;;;2.85;0.90;;;;;;;;;;5017979;28;20766;-72
2023/08/09 02:54:10;;;;;;;4.13;1.10;;;;;;;;;;5016422;28;20064;-71
2023/08/09 02:56:35;;;;;;;2.83;0.90;;;;;;;;;;5014742;28;20279;-71
2023/08/09 02:59:01;;;;;;;4.82;1.10;;;;;;;;;;5015645;28;20560;-71
2023/08/09 03:01:26;;;;;;;3.10;1.13;;;;;;;;;;5017790;28;20029;-70
2023/08/09 03:03:52;;;;;;;3.78;1.20;;;;;;;;;;5015248;28;20455;-72
2023/08/09 03:06:17;;;;;;;3.65;1.00;;;;;;;;;;5013593;28;20628;-72
2023/08/09 03:08:46;;;;;;;3.50;1.13;;;;;;;;;;5016199;28;20038;-69
2023/08/09 03:11:11;;;;;;;3.20;1.00;;;;;;;;;;5015517;28;20115;-69
2023/08/09 03:13:39;;;;;;;3.35;0.90;;;;;;;;;;5011208;28;20029;-69
2023/08/09 03:16:05;;;;;;;4.03;1.00;;;;;;;;;;5013552;28;20056;-72
2023/08/09 03:18:30;;;;;;;3.90;1.15;;;;;;;;;;5019364;28;20171;-69
2023/08/09 03:20:56;;;;;;;2.97;0.80;;;;;;;;;;5015059;28;20856;-69
2023/08/09 03:23:23;;;;;;;3.05;0.93;;;;;;;;;;5023431;28;20091;-72
2023/08/09 03:25:49;;;;;;;3.38;1.10;;;;;;;;;;5014646;28;20058;-70
2023/08/09 03:28:14;;;;;;;4.47;1.10;;;;;;;;;;5010995;28;20034;-71
2023/08/09 03:30:41;;;;;;;5.03;1.20;;;;;;;;;;5017442;28;20359;-71
2023/08/09 03:33:07;;;;;;;3.60;1.00;;;;;;;;;;5012763;28;20260;-69
2023/08/09 03:35:32;;;;;;;3.33;1.00;;;;;;;;;;5015344;28;20551;-72
2023/08/09 03:38:02;;;;;;;2.83;0.90;;;;;;;;;;5011119;28;20299;-71
2023/08/09 03:40:27;;;;;;;3.70;1.27;;;;;;;;;;5013502;28;20355;-72
2023/08/09 03:42:52;;;;;;;2.90;0.90;;;;;;;;;;5017748;28;20012;-70
2023/08/09 03:45:18;;;;;;;2.57;0.90;;;;;;;;;;5017177;28;20252;-70
2023/08/09 03:47:43;;;;;;;5.40;0.90;;;;;;;;;;5015141;28;21055;-70
2023/08/09 03:50:09;;;;;;;2.92;0.90;;;;;;;;;;5015740;28;20029;-70
2023/08/09 03:52:34;;;;;;;3.10;0.88;;;;;;;;;;5013757;28;20024;-71
2023/08/09 03:55:00;;;;;;;2.13;0.80;;;;;;;;;;5018045;28;20197;-70
2023/08/09 03:57:27;;;;;;;3.65;1.10;;;;;;;;;;5015132;28;20279;-72
2023/08/09 03:59:55;;;;;;;3.45;1.17;;;;;;;;;;5015693;28;20190;-71
2023/08/09 04:02:21;;;;;;;3.03;0.95;;;;;;;;;;5010645;28;20032;-71
2023/08/09 04:04:47;;;;;;;6.28;1.10;;;;;;;;;;5017654;28;20013;-72
2023/08/09 04:07:12;;;;;;;3.55;0.80;;;;;;;;;;5014052;28;20107;-71
2023/08/09 04:09:37;;;;;;;3.40;1.00;;;;;;;;;;5018436;28;20083;-72
2023/08/09 04:12:05;;;;;;;3.35;1.10;;;;;;;;;;5029494;28;20121;-74
2023/08/09 04:14:31;;;;;;;2.63;0.80;;;;;;;;;;5016475;28;20491;-70
2023/08/09 04:16:59;;;;;;;3.28;1.20;;;;;;;;;;5022396;28;20024;-69
2023/08/09 04:19:26;;;;;;;3.63;1.17;;;;;;;;;;5015463;28;20104;-69
2023/08/09 04:21:51;;;;;;;4.55;1.08;;;;;;;;;;5016496;28;20037;-70
2023/08/09 04:24:19;;;;;;;3.22;1.10;;;;;;;;;;5011836;28;20051;-72
2023/08/09 04:26:45;;;;;;;3.13;1.08;;;;;;;;;;5016983;28;20132;-70
2023/08/09 04:29:10;;;;;;;3.45;1.20;;;;;;;;;;5015030;28;20017;-71
2023/08/09 04:31:36;;;;;;;3.07;0.90;;;;;;;;;;5018839;28;20099;-69
2023/08/09 04:34:02;;;;;;;3.00;1.00;;;;;;;;;;5016219;28;20298;-70
2023/08/09 04:36:31;;;;;;;2.78;0.90;;;;;;;;;;5018324;28;20235;-69
2023/08/09 04:38:59;;;;;;;4.22;1.00;;;;;;;;;;5017989;28;20692;-70
2023/08/09 04:41:24;;;;;;;3.30;1.00;;;;;;;;;;5010800;28;20026;-72
2023/08/09 04:43:49;;;;;;;3.90;1.20;;;;;;;;;;5017126;28;20022;-71
2023/08/09 04:46:18;;;;;;;4.30;1.00;;;;;;;;;;5019021;28;20980;-71
2023/08/09 04:48:43;;;;;;;3.33;1.05;;;;;;;;;;5015251;28;20030;-71
2023/08/09 04:51:09;;;;;;;3.20;1.00;;;;;;;;;;5029001;28;20091;-71
2023/08/09 04:53:34;;;;;;;3.75;1.05;;;;;;;;;;5019027;28;20524;-70
2023/08/09 04:55:59;;;;;;;3.28;1.10;;;;;;;;;;5011701;28;20501;-74
2023/08/09 04:58:25;;;;;;;3.37;1.10;;;;;;;;;;5015407;28;20511;-72
2023/08/09 05:00:50;;;;;;;3.00;0.80;;;;;;;;;;5017876;28;20303;-70
2023/08/09 05:03:15;;;;;;;3.40;1.00;;;;;;;;;;5016162;28;20255;-71
2023/08/09 05:05:40;;;;;;;2.17;0.80;;;;;;;;;;5014129;28;20020;-70
2023/08/09 05:08:06;;;;;;;3.55;1.10;;;;;;;;;;5013845;28;20366;-70
2023/08/09 05:10:33;;;;;;;3.77;1.10;;;;;;;;;;5016923;28;20025;-70
2023/08/09 05:12:58;;;;;;;3.25;1.00;;;;;;;;;;5014266;28;20298;-71
2023/08/09 05:15:24;;;;;;;3.83;1.00;;;;;;;;;;5015048;28;20077;-72
2023/08/09 05:17:49;;;;;;;2.50;0.80;;;;;;;;;;5014979;28;20896;-72
2023/08/09 05:20:16;;;;;;;3.73;1.10;;;;;;;;;;5010442;28;20323;-71
2023/08/09 05:22:42;;;;;;;4.10;1.10;;;;;;;;;;5016447;28;20256;-71
2023/08/09 05:25:11;;;;;;;3.55;0.90;;;;;;;;;;5014562;28;20028;-70
2023/08/09 05:27:36;;;;;;;3.40;1.02;;;;;;;;;;5025032;28;20087;-71
2023/08/09 05:30:01;;;;;;;4.13;1.20;;;;;;;;;;5015071;28;21024;-70
2023/08/09 05:32:26;;;;;;;4.87;1.10;;;;;;;;;;5013316;28;20258;-70
2023/08/09 05:34:52;;;;;;;4.25;1.10;;;;;;;;;;5016403;28;20618;-70
2023/08/09 05:37:17;;;;;;;3.53;1.00;;;;;;;;;;5016790;28;20033;-71
2023/08/09 05:39:42;;;;;;;2.88;1.42;;;;;;;;;;5009693;28;20103;-71
2023/08/09 05:42:08;;;;;;;3.23;1.10;;;;;;;;;;5010301;28;20025;-72
2023/08/09 05:44:35;;;;;;;4.07;1.10;;;;;;;;;;5015812;28;20248;-68
2023/08/09 05:47:03;;;;;;;3.75;1.10;;;;;;;;;;5009097;28;20249;-70
2023/08/09 05:49:30;;;;;;;4.38;1.10;;;;;;;;;;5017156;28;20037;-71
2023/08/09 05:51:56;;;;;;;3.92;1.10;;;;;;;;;;5017725;28;20183;-70
2023/08/09 05:54:23;;;;;;;5.00;1.10;;;;;;;;;;5015731;28;20468;-71
2023/08/09 05:56:48;;;;;;;2.90;0.98;;;;;;;;;;5014995;28;20666;-71
2023/08/09 05:59:14;;;;;;;3.40;1.00;;;;;;;;;;5024013;28;20021;-70
2023/08/09 06:01:39;;;;;;;3.03;0.90;;;;;;;;;;5012320;28;20741;-73
2023/08/09 06:04:07;;;;;;;3.93;1.10;;;;;;;;;;5017667;28;20256;-71
2023/08/09 06:06:35;;;;;;;7.05;1.13;;;;;;;;;;5015683;28;20251;-70
2023/08/09 06:09:01;;;;;;;5.35;0.93;;;;;;;;;;5016418;28;20065;-70
2023/08/09 06:11:26;;;;;;;3.00;0.90;;;;;;;;;;5019374;28;20120;-68
2023/08/09 06:13:51;;;;;;;4.13;1.02;;;;;;;;;;5014162;28;20054;-70
2023/08/09 06:16:19;;;;;;;2.70;0.80;;;;;;;;;;5012471;28;20575;-69
2023/08/09 06:18:44;;;;;;;3.67;1.27;;;;;;;;;;5013481;28;20275;-71
2023/08/09 06:21:09;;;;;;;3.30;0.90;;;;;;;;;;5012777;28;20046;-70
2023/08/09 06:23:35;;;;;;;2.73;1.00;;;;;;;;;;5009653;28;20025;-70
2023/08/09 06:26:00;;;;;;;3.35;1.00;;;;;;;;;;5010054;28;21286;-71
2023/08/09 06:28:27;;;;;;;3.67;1.10;;;;;;;;;;5016492;28;20010;-72
2023/08/09 06:30:53;;;;;;;3.25;0.95;;;;;;;;;;5015560;28;20285;-70
2023/08/09 06:33:18;;;;;;;4.28;1.08;;;;;;;;;;5009693;28;20443;-72
2023/08/09 06:35:46;;;;;;;4.63;1.02;;;;;;;;;;5010590;28;20030;-69
2023/08/09 06:38:11;;;;;;;3.33;1.00;;;;;;;;;;5028482;28;20022;-74
2023/08/09 06:40:39;;;;;;;5.75;1.20;;;;;;;;;;5013321;28;20504;-71
2023/08/09 06:43:04;;;;;;;2.90;0.85;;;;;;;;;;5015608;28;20117;-70
2023/08/09 06:45:29;;;;;;;3.80;1.20;;;;;;;;;;5011301;28;20022;-71
2023/08/09 06:47:56;;;;;;;4.43;1.00;;;;;;;;;;5026188;28;20327;-69
2023/08/09 06:50:24;;;;;;;6.00;1.25;;;;;;;;;;5007470;28;20272;-70
2023/08/09 06:52:49;;;;;;;5.70;1.38;;;;;;;;;;5016255;28;21193;-73
2023/08/09 06:55:17;;;;;;;3.63;1.30;;;;;;;;;;5008104;28;20022;-71
2023/08/09 06:57:42;;;;;;;5.15;1.05;;;;;;;;;;5029560;28;20029;-71
2023/08/09 07:00:15;;;;;;;3.70;1.10;;;;;;;;;;5016648;28;20026;-71
2023/08/09 07:02:43;;;;;;;3.78;1.20;;;;;;;;;;5022225;28;20044;-74
2023/08/09 07:05:15;;;;;;;3.97;1.08;;;;;;;;;;5015031;28;20021;-69
2023/08/09 07:07:44;;;;;;;5.07;1.40;;;;;;;;;;5013532;28;20136;-69
2023/08/09 07:10:12;;;;;;;3.72;1.30;;;;;;;;;;5002271;28;20582;-71
2023/08/09 07:12:37;;;;;;;3.42;1.02;;;;;;;;;;5022930;28;20029;-72
2023/08/09 07:15:08;;;;;;;3.80;1.08;;;;;;;;;;5014558;28;20017;-70
2023/08/09 07:17:33;;;;;;;3.85;1.30;;;;;;;;;;5013049;28;20037;-72
2023/08/09 07:20:01;;;;;;;3.28;1.17;;;;;;;;;;5011197;28;20568;-71
2023/08/09 07:22:28;;;;;;;3.40;1.23;;;;;;;;;;5015538;28;20511;-70
2023/08/09 07:24:53;;;;;;;4.10;1.02;;;;;;;;;;5010188;28;20056;-70
2023/08/09 07:27:19;;;;;;;4.73;1.10;;;;;;;;;;5014592;28;20383;-71
2023/08/09 07:29:44;;;;;;;4.47;1.30;;;;;;;;;;5011587;28;20034;-70
2023/08/09 07:32:09;;;;;;;3.23;1.20;;;;;;;;;;5013428;28;20255;-68
2023/08/09 07:34:37;;;;;;;3.35;1.10;;;;;;;;;;5016190;28;20667;-71
2023/08/09 07:37:02;;;;;;;6.35;1.17;;;;;;;;;;5007485;28;20025;-71
2023/08/09 07:39:28;;;;;;;4.97;1.10;;;;;;;;;;5012699;28;20518;-73
2023/08/09 07:41:53;;;;;;;3.70;1.17;;;;;;;;;;5012186;28;20697;-71
2023/08/09 07:44:21;;;;;;;2.97;0.90;;;;;;;;;;5026125;28;20018;-71
2023/08/09 07:46:47;;;;;;;3.90;1.15;;;;;;;;;;5011169;28;20347;-72
2023/08/09 07:49:14;;;;;;;3.60;1.13;;;;;;;;;;5007398;28;20044;-71
2023/08/09 07:51:39;;;;;;;3.22;1.02;;;;;;;;;;5014085;28;20256;-72
2023/08/09 07:54:05;;;;;;;5.87;1.50;;;;;;;;;;5045143;28;20026;-70
2023/08/09 07:56:30;;;;;;;4.60;1.20;;;;;;;;;;5019400;28;20232;-70
2023/08/09 07:58:55;;;;;;;5.97;1.20;;;;;;;;;;5002357;28;20117;-70
2023/08/09 08:01:20;;;;;;;3.87;1.20;;;;;;;;;;5012648;28;20029;-69
2023/08/09 08:03:46;;;;;;;4.17;0.93;;;;;;;;;;5017676;28;20249;-73
2023/08/09 08:06:11;;;;;;;2.67;1.10;;;;;;;;;;5019856;28;20252;-73
2023/08/09 08:08:36;;;;;;;3.43;1.10;;;;;;;;;;5017371;28;20302;-69
2023/08/09 08:11:02;;;;;;;3.05;1.05;;;;;;;;;;5019136;28;20256;-70
2023/08/09 08:13:27;;;;;;;3.97;1.08;;;;;;;;;;5017157;28;20024;-71
2023/08/09 08:15:52;;;;;;;4.27;1.30;;;;;;;;;;5016810;28;20025;-72
2023/08/09 08:18:17;;;;;;;2.75;0.85;;;;;;;;;;5015086;28;20130;-72
2023/08/09 08:20:45;;;;;;;3.20;1.05;;;;;;;;;;5015786;28;20131;-70
2023/08/09 08:23:12;;;;;;;3.63;1.30;;;;;;;;;;5008974;28;20021;-69
2023/08/09 08:25:38;;;;;;;3.70;1.00;;;;;;;;;;5029988;28;20109;-70
2023/08/09 08:28:03;;;;;;;3.10;0.90;;;;;;;;;;5022402;28;20822;-71
2023/08/09 08:30:31;;;;;;;3.72;0.95;;;;;;;;;;5016666;28;20927;-71
2023/08/09 08:32:58;;;;;;;4.18;1.10;;;;;;;;;;5017580;28;20025;-72
2023/08/09 08:35:24;;;;;;;3.10;0.98;;;;;;;;;;5021571;28;21289;-74
2023/08/09 08:37:50;;;;;;;3.60;1.10;;;;;;;;;;5020321;28;20026;-72
2023/08/09 08:40:19;;;;;;;2.45;0.85;;;;;;;;;;5022904;28;20655;-73
2023/08/09 08:42:45;;;;;;;2.92;1.00;;;;;;;;;;5021280;28;20117;-72
2023/08/09 08:45:11;;;;;;;3.10;1.00;;;;;;;;;;5020034;28;20032;-73
2023/08/09 08:47:41;;;;;;;4.97;1.10;;;;;;;;;;5011128;28;20022;-69
2023/08/09 08:50:08;;;;;;;3.20;1.00;;;;;;;;;;5015742;28;20022;-68
2023/08/09 08:52:36;;;;;;;3.40;1.05;;;;;;;;;;5017087;28;20577;-69
2023/08/09 08:55:05;;;;;;;3.00;0.90;;;;;;;;;;5013204;28;20112;-69
2023/08/09 08:57:30;;;;;;;3.70;1.10;;;;;;;;;;5027500;28;20033;-71
2023/08/09 08:59:56;;;;;;;3.33;0.95;;;;;;;;;;5014241;28;20037;-70
2023/08/09 09:02:21;;;;;;;3.65;0.93;;;;;;;;;;5012503;28;20045;-69
2023/08/09 09:04:47;;;;;;;3.73;1.20;;;;;;;;;;5015563;28;20032;-70
2023/08/09 09:07:17;;;;;;;2.83;0.98;;;;;;;;;;5010337;28;20280;-71
2023/08/09 09:09:58;;;;;;;3.45;1.17;;;;;;;;;;5012755;28;20025;-72
2023/08/09 09:12:26;;;;;;;4.05;1.10;;;;;;;;;;5014114;28;20026;-68
2023/08/09 09:14:52;;;;;;;5.00;1.13;;;;;;;;;;5015595;28;20069;-68
2023/08/09 09:17:21;;;;;;;4.25;1.00;;;;;;;;;;5010711;28;20072;-68
2023/08/09 09:19:47;;;;;;;5.30;1.20;;;;;;;;;;5008789;28;20073;-67
2023/08/09 09:22:28;;;;;;;4.80;1.20;;;;;;;;;;5011404;28;20117;-67
2023/08/09 09:24:58;;;;;;;3.97;1.27;;;;;;;;;;5013440;28;20032;-67
2023/08/09 09:27:31;;;;;;;4.22;1.20;;;;;;;;;;5018736;28;20033;-68
2023/08/09 09:30:01;;;;;;;3.80;1.15;;;;;;;;;;5012263;28;20125;-68
2023/08/09 09:32:26;;;;;;;4.20;1.00;;;;;;;;;;5011818;28;20032;-68
2023/08/09 09:34:53;;;;;;;4.87;1.30;;;;;;;;;;5007832;28;20025;-68
2023/08/09 09:37:25;;;;;;;3.90;1.10;;;;;;;;;;5012898;28;20021;-68
2023/08/09 09:39:52;;;;;;;4.50;0.98;;;;;;;;;;5010499;28;20018;-67
2023/08/09 09:42:17;;;;;;;3.67;1.20;;;;;;;;;;5016089;28;20018;-71
2023/08/09 09:44:43;;;;;;;4.07;0.95;;;;;;;;;;5009387;28;20496;-68
2023/08/09 09:47:11;;;;;;;5.25;1.20;;;;;;;;;;5016611;28;20014;-69
2023/08/09 09:49:36;;;;;;;5.28;1.15;;;;;;;;;;5010066;28;20026;-67
2023/08/09 09:52:03;;;;;;;3.42;1.17;;;;;;;;;;5013098;28;20535;-68
2023/08/09 09:54:28;;;;;;;3.85;1.30;;;;;;;;;;5013995;28;20025;-71
2023/08/09 09:56:54;;;;;;;5.43;1.02;;;;;;;;;;5030736;28;20992;-70
2023/08/09 09:59:19;;;;;;;5.87;1.00;;;;;;;;;;5014669;28;20032;-72
2023/08/09 10:01:47;;;;;;;3.60;0.90;;;;;;;;;;5047169;28;20052;-70
2023/08/09 10:04:16;;;;;;;5.07;1.02;;;;;;;;;;5014475;28;20274;-70
2023/08/09 10:06:43;;;;;;;3.60;1.20;;;;;;;;;;5016177;28;20017;-68
2023/08/09 10:09:09;;;;;;;4.25;1.10;;;;;;;;;;5046311;28;20443;-69
2023/08/09 10:11:36;;;;;;;2.92;0.90;;;;;;;;;;5014745;28;20072;-68
2023/08/09 10:14:02;;;;;;;3.70;1.02;;;;;;;;;;5014212;28;20529;-70
2023/08/09 10:16:31;;;;;;;2.95;0.95;;;;;;;;;;5012114;28;20045;-71
2023/08/09 10:19:03;;;;;;;3.67;1.15;;;;;;;;;;5014912;28;20020;-68
2023/08/09 10:21:28;;;;;;;6.82;1.60;;;;;;;;;;5013431;28;20072;-73
2023/08/09 10:23:57;;;;;;;5.85;1.50;;;;;;;;;;5013332;28;20459;-70
2023/08/09 10:26:29;;;;;;;4.90;1.60;;;;;;;;;;5029685;28;20492;-70
2023/08/09 10:29:14;;;;;;;6.03;1.58;;;;;;;;;;5013742;28;20048;-68
2023/08/09 10:31:46;;;;;;;5.32;1.67;;;;;;;;;;5014434;28;20026;-71
2023/08/09 10:34:13;;;;;;;5.43;1.55;;;;;;;;;;5014212;28;20025;-68
2023/08/09 10:36:43;;;;;;;5.15;1.50;;;;;;;;;;5015635;28;20021;-71
2023/08/09 10:39:12;;;;;;;5.82;1.70;;;;;;;;;;5026548;28;20032;-69
2023/08/09 10:41:37;;;;;;;4.28;1.38;;;;;;;;;;5013328;28;20040;-70
2023/08/09 10:44:03;;;;;;;4.72;1.50;;;;;;;;;;5011880;28;20581;-72
2023/08/09 10:46:32;;;;;;;5.18;1.17;;;;;;;;;;5014764;28;20020;-70
2023/08/09 10:49:00;;;;;;;7.22;1.30;;;;;;;;;;5026972;28;20036;-69
2023/08/09 10:51:29;;;;;;;3.83;1.15;;;;;;;;;;5013325;28;20092;-71
2023/08/09 10:54:00;;;;;;;4.18;1.40;;;;;;;;;;5013811;28;20056;-69
2023/08/09 10:56:32;;;;;;;5.47;1.20;;;;;;;;;;5013452;28;20472;-70
2023/08/09 10:59:15;;;;;;;4.00;1.35;;;;;;;;;;5011684;28;20497;-70
2023/08/09 11:01:41;;;;;;;3.28;1.27;;;;;;;;;;5013098;28;20079;-71
2023/08/09 11:04:07;;;;;;;6.47;1.45;;;;;;;;;;5014145;28;20201;-71
2023/08/09 11:06:42;;;;;;;3.88;1.33;;;;;;;;;;5012638;28;20013;-71
2023/08/09 11:09:08;;;;;;;9.93;1.52;;;;;;;;;;5012142;28;20124;-69
2023/08/09 11:11:36;;;;;;;5.43;1.40;;;;;;;;;;5012055;28;20121;-70
2023/08/09 11:14:02;;;;;;;4.07;1.27;;;;;;;;;;5014745;28;20213;-70
2023/08/09 11:16:30;;;;;;;3.60;1.25;;;;;;;;;;5011958;28;20025;-72
2023/08/09 11:19:14;;;;;;;6.03;1.60;;;;;;;;;;5014875;28;20484;-70
2023/08/09 11:21:46;;;;;;;3.80;1.25;;;;;;;;;;5012019;28;20045;-69
2023/08/09 11:24:12;;;;;;;5.00;1.88;;;;;;;;;;5027541;28;20132;-69
2023/08/09 11:27:04;;;;;;;6.25;1.45;;;;;;;;;;5009828;28;20145;-69
2023/08/09 11:29:33;;;;;;;3.95;1.58;;;;;;;;;;5010665;28;20126;-70
2023/08/09 11:31:58;;;;;;;4.17;1.40;;;;;;;;;;5012905;28;20040;-69
2023/08/09 11:34:24;;;;;;;4.57;1.30;;;;;;;;;;5012757;28;20487;-71
2023/08/09 11:36:50;;;;;;;4.18;1.30;;;;;;;;;;5010816;28;20127;-73
2023/08/09 11:39:16;;;;;;;5.47;1.50;;;;;;;;;;5011562;28;20026;-68
2023/08/09 11:41:50;;;;;;;4.60;1.20;;;;;;;;;;5013176;28;20021;-72
2023/08/09 11:44:16;;;;;;;7.53;1.50;;;;;;;;;;5015824;28;20079;-69
2023/08/09 11:46:45;;;;;;;4.25;1.25;;;;;;;;;;5013726;28;20021;-71
2023/08/09 11:49:10;;;;;;;4.68;1.10;;;;;;;;;;5012457;28;20084;-70
2023/08/09 11:51:36;;;;;;;4.60;1.40;;;;;;;;;;5015936;28;20030;-74
2023/08/09 11:54:02;;;;;;;4.85;1.45;;;;;;;;;;5015876;28;20024;-71
2023/08/09 11:56:33;;;;;;;5.03;1.27;;;;;;;;;;5014106;28;20017;-69
2023/08/09 11:59:00;;;;;;;5.70;1.27;;;;;;;;;;5029987;28;20057;-63
2023/08/09 12:01:26;;;;;;;4.75;1.30;;;;;;;;;;5015020;28;20021;-64
2023/08/09 12:03:58;;;;;;;4.15;1.45;;;;;;;;;;5028751;28;20025;-69
2023/08/09 12:06:33;;;;;;;4.18;1.30;;;;;;;;;;5029118;28;20101;-67
2023/08/09 12:08:58;;;;;;;6.10;1.45;;;;;;;;;;5013823;28;20129;-67
2023/08/09 12:11:23;;;;;;;4.13;1.40;;;;;;;;;;5019435;28;20010;-68
2023/08/09 12:13:49;;;;;;;4.50;1.37;;;;;;;;;;5018344;28;20018;-67
2023/08/09 12:16:14;;;;;;;4.10;1.33;;;;;;;;;;5014019;28;20060;-67
2023/08/09 12:18:40;;;;;;;3.67;1.38;;;;;;;;;;5010788;28;20017;-68
2023/08/09 12:21:07;;;;;;;5.30;1.33;;;;;;;;;;5006480;28;20060;-67
2023/08/09 12:23:33;;;;;;;4.43;1.50;;;;;;;;;;5011828;28;20271;-67
2023/08/09 12:25:58;;;;;;;4.18;1.35;;;;;;;;;;5008612;28;20010;-68
2023/08/09 12:28:26;;;;;;;4.70;1.50;;;;;;;;;;5020683;28;20052;-67
2023/08/09 12:30:54;;;;;;;5.03;1.45;;;;;;;;;;5016778;28;20032;-67
2023/08/09 12:33:22;;;;;;;4.60;1.40;;;;;;;;;;5022874;28;20040;-67
2023/08/09 12:35:47;;;;;;;5.35;1.40;;;;;;;;;;5012502;28;20069;-67
2023/08/09 12:38:14;;;;;;;5.57;1.40;;;;;;;;;;5013884;28;20574;-67
2023/08/09 12:40:40;;;;;;;4.85;1.30;;;;;;;;;;5016265;28;20136;-67
2023/08/09 12:43:07;;;;;;;4.23;1.40;;;;;;;;;;5006772;28;20100;-68
2023/08/09 12:45:32;;;;;;;3.47;1.30;;;;;;;;;;5012857;28;20691;-67
2023/08/09 12:47:58;;;;;;;4.70;1.40;;;;;;;;;;5021796;28;20542;-67
2023/08/09 12:50:26;;;;;;;4.55;1.35;;;;;;;;;;5017708;28;20244;-67
2023/08/09 12:52:53;;;;;;;5.25;1.30;;;;;;;;;;5020255;28;20025;-67
2023/08/09 12:55:23;;;;;;;4.00;1.50;;;;;;;;;;5016852;28;20021;-67
2023/08/09 12:57:48;;;;;;;6.05;1.48;;;;;;;;;;5032755;28;20035;-68
2023/08/09 13:00:15;;;;;;;4.53;1.40;;;;;;;;;;5022579;28;20071;-68
2023/08/09 13:02:40;;;;;;;4.38;1.42;;;;;;;;;;5017378;28;20452;-69
2023/08/09 13:05:08;;;;;;;4.80;1.40;;;;;;;;;;5015799;28;20018;-67
2023/08/09 13:07:33;;;;;;;5.00;1.48;;;;;;;;;;5019132;28;20291;-67
2023/08/09 13:09:59;;;;;;;5.85;1.30;;;;;;;;;;5024000;28;20028;-66
2023/08/09 13:12:25;;;;;;;4.43;1.30;;;;;;;;;;5019046;28;20018;-68
2023/08/09 13:14:50;;;;;;;4.53;1.40;;;;;;;;;;5011905;28;20026;-67
2023/08/09 13:17:16;;;;;;;4.47;1.33;;;;;;;;;;5018512;28;20032;-67
2023/08/09 13:19:41;;;;;;;5.85;1.45;;;;;;;;;;5014497;28;20021;-67
2023/08/09 13:22:07;;;;;;;4.63;1.50;;;;;;;;;;5021315;28;20021;-67
2023/08/09 13:24:32;;;;;;;3.92;1.40;;;;;;;;;;5016392;28;20025;-67
2023/08/09 13:26:57;;;;;;;5.80;1.50;;;;;;;;;;5021396;28;20604;-68
2023/08/09 13:29:22;;;;;;;5.70;1.50;;;;;;;;;;5008308;28;20050;-68
2023/08/09 13:31:48;;;;;;;4.63;1.40;;;;;;;;;;5017312;28;20649;-69
2023/08/09 13:34:13;;;;;;;6.03;1.67;;;;;;;;;;5012916;28;20256;-67
2023/08/09 13:36:38;;;;;;;3.97;1.30;;;;;;;;;;5021339;28;20345;-68
2023/08/09 13:39:04;;;;;;;4.10;1.40;;;;;;;;;;5019443;28;20082;-68
2023/08/09 13:41:29;;;;;;;3.65;1.20;;;;;;;;;;5020958;28;20663;-68
2023/08/09 13:43:54;;;;;;;6.07;1.50;;;;;;;;;;5024814;28;20060;-67
2023/08/09 13:46:19;;;;;;;4.47;1.40;;;;;;;;;;5020342;28;20029;-67
2023/08/09 13:48:46;;;;;;;3.87;1.40;;;;;;;;;;5020651;28;20033;-65
2023/08/09 13:51:12;;;;;;;6.80;1.42;;;;;;;;;;5018428;28;20090;-68
2023/08/09 13:53:37;;;;;;;4.78;1.17;;;;;;;;;;5019288;28;20029;-67
2023/08/09 13:56:02;;;;;;;4.40;1.43;;;;;;;;;;5050320;28;20099;-66
2023/08/09 13:58:30;;;;;;;4.10;1.60;;;;;;;;;;5015577;28;20953;-67
2023/08/09 14:00:55;;;;;;;4.45;1.40;;;;;;;;;;5009673;28;20032;-67
2023/08/09 14:03:24;;;;;;;3.80;1.27;;;;;;;;;;5013014;28;20017;-67
2023/08/09 14:05:52;;;;;;;5.78;1.50;;;;;;;;;;5015048;28;20264;-70
2023/08/09 14:08:17;;;;;;;4.95;1.40;;;;;;;;;;5015406;28;20033;-72
2023/08/09 14:10:42;;;;;;;5.63;1.67;;;;;;;;;;5020028;28;20950;-72
2023/08/09 14:13:08;;;;;;;5.63;1.27;;;;;;;;;;5016887;28;20651;-74
2023/08/09 14:15:33;;;;;;;4.68;1.40;;;;;;;;;;5017913;28;20277;-73
2023/08/09 14:17:58;;;;;;;4.60;1.60;;;;;;;;;;5016478;28;20032;-73
2023/08/09 14:20:23;;;;;;;3.55;1.35;;;;;;;;;;5022152;28;20046;-73
2023/08/09 14:22:51;;;;;;;6.13;1.40;;;;;;;;;;5030157;28;20727;-73
2023/08/09 14:25:20;;;;;;;6.38;1.40;;;;;;;;;;5017328;28;20885;-72
2023/08/09 14:27:45;;;;;;;4.82;1.60;;;;;;;;;;5015841;28;20033;-72
2023/08/09 14:30:11;;;;;;;5.20;1.30;;;;;;;;;;5012786;28;20021;-72
2023/08/09 14:32:36;;;;;;;4.57;1.35;;;;;;;;;;5016598;28;20032;-73
2023/08/09 14:35:02;;;;;;;5.10;1.60;;;;;;;;;;5018000;28;20018;-72
2023/08/09 14:37:27;;;;;;;4.07;1.38;;;;;;;;;;5014103;28;20256;-71
2023/08/09 14:39:53;;;;;;;4.33;1.40;;;;;;;;;;5017171;28;20025;-73